Time;durP1;ratioP1;P1;durP2;ratioP2;P2;SDS_P1;SDS_P2;PMS_P1;PMS_P2;Temp;Humidity;BMP_temperature;BMP_pressure;BME280_temperature;BME280_humidity;BME280_pressure;Samples;Min_cycle;Max_cycle;Signal;HPM_P1;HPM_P2
2022/01/21 00:01:34;;;;;;;6.30;0.80;;;;;;;-0.95;93.57;102563.19;10024779;29;20048;-67
2022/01/21 00:06:31;;;;;;;8.40;1.95;;;;;;;-0.89;95.10;102563.22;10001023;29;20138;-67
2022/01/21 00:11:30;;;;;;;10.18;1.10;;;;;;;-0.90;95.76;102560.78;10025450;29;20064;-66
2022/01/21 00:16:28;;;;;;;5.93;0.90;;;;;;;-0.89;96.89;102562.41;10000811;29;20083;-66
2022/01/21 00:31:57;;;;;;;4.60;0.93;;;;;;;-0.93;100.00;102543.19;10007954;29;20060;-67
2022/01/21 00:36:53;;;;;;;7.72;1.27;;;;;;;-0.95;100.00;102547.06;10000486;29;20059;-67
2022/01/21 00:42:02;;;;;;;9.02;1.08;;;;;;;-0.93;100.00;102539.66;9995417;29;20048;-65
2022/01/21 00:46:59;;;;;;;6.95;1.00;;;;;;;-0.92;100.00;102541.34;10009961;29;20094;-65
2022/01/21 00:51:55;;;;;;;8.18;1.15;;;;;;;-0.94;100.00;102554.13;10027423;29;20587;-65
2022/01/21 00:56:52;;;;;;;6.85;1.10;;;;;;;-0.97;100.00;102552.66;9996674;29;20071;-67
2022/01/21 01:01:48;;;;;;;9.57;1.30;;;;;;;-0.96;100.00;102546.25;9996724;29;20084;-67
2022/01/21 01:06:45;;;;;;;7.45;0.88;;;;;;;-0.96;100.00;102548.13;10001496;29;20052;-67
2022/01/21 01:21:59;;;;;;;8.55;1.15;;;;;;;-0.94;100.00;102554.94;9996228;29;20071;-68
2022/01/21 01:32:11;;;;;;;6.78;1.13;;;;;;;-0.88;100.00;102553.34;10000167;29;20099;-66
2022/01/21 01:37:15;;;;;;;5.43;0.95;;;;;;;-0.88;100.00;102558.72;10014528;29;20099;-67
2022/01/21 01:42:54;;;;;;;10.68;1.15;;;;;;;-0.92;100.00;102557.44;10002736;29;20071;-68
2022/01/21 01:52:47;;;;;;;5.75;1.10;;;;;;;-0.91;100.00;102537.59;10002708;29;20040;-65
2022/01/21 01:57:45;;;;;;;8.73;1.05;;;;;;;-0.93;100.00;102535.13;10007492;29;20135;-65
2022/01/21 02:02:41;;;;;;;5.85;1.23;;;;;;;-0.99;100.00;102535.09;10002490;29;20056;-67
2022/01/21 02:07:39;;;;;;;4.63;1.45;;;;;;;-0.97;100.00;102527.66;10004016;29;20127;-68
2022/01/21 02:12:36;;;;;;;7.35;1.58;;;;;;;-0.95;100.00;102523.75;10001090;29;20510;-68
2022/01/21 02:22:35;;;;;;;14.55;2.22;;;;;;;-0.95;100.00;102531.81;10001450;29;20107;-66
2022/01/21 02:27:32;;;;;;;10.43;1.10;;;;;;;-0.85;100.00;102536.84;10006610;29;20087;-66
2022/01/21 02:32:28;;;;;;;21.00;1.77;;;;;;;-0.83;100.00;102545.53;10000853;29;20105;-66
2022/01/21 02:37:25;;;;;;;15.07;2.15;;;;;;;-0.87;100.00;102549.63;10001032;29;20051;-67
2022/01/21 02:42:21;;;;;;;15.65;2.13;;;;;;;-0.78;100.00;102547.63;10000953;29;20107;-66
2022/01/21 02:47:18;;;;;;;14.00;1.23;;;;;;;-0.81;100.00;102548.84;10030649;29;20103;-67
2022/01/21 02:52:18;;;;;;;11.52;1.63;;;;;;;-0.81;100.00;102540.78;10002535;29;20052;-67
2022/01/21 02:57:14;;;;;;;19.05;2.13;;;;;;;-0.83;100.00;102540.16;10017171;29;20122;-65
2022/01/21 03:02:11;;;;;;;19.13;3.05;;;;;;;-0.82;100.00;102528.38;10001302;29;20111;-65
2022/01/21 03:07:08;;;;;;;10.82;2.72;;;;;;;-0.81;100.00;102532.72;10009292;29;20052;-65
2022/01/21 03:12:04;;;;;;;10.93;1.33;;;;;;;-0.80;100.00;102534.38;9998867;29;20107;-69
2022/01/21 03:17:01;;;;;;;22.25;1.33;;;;;;;-0.75;100.00;102537.28;10004989;29;20111;-68
2022/01/21 03:21:58;;;;;;;13.15;1.50;;;;;;;-0.67;100.00;102542.53;9998703;29;20075;-68
2022/01/21 03:26:54;;;;;;;13.35;1.92;;;;;;;-0.58;100.00;102548.56;10023918;29;20079;-68
2022/01/21 03:31:50;;;;;;;16.35;2.20;;;;;;;-0.48;100.00;102554.41;10006268;29;20127;-65
2022/01/21 03:36:47;;;;;;;11.15;1.52;;;;;;;-0.37;100.00;102547.63;10028723;29;20491;-67
2022/01/21 03:41:44;;;;;;;18.67;1.80;;;;;;;-0.36;100.00;102535.84;10012881;29;20052;-67
2022/01/21 03:46:40;;;;;;;14.30;2.90;;;;;;;-0.30;100.00;102524.31;10018115;29;20062;-69
2022/01/21 03:51:37;;;;;;;13.70;2.13;;;;;;;-0.24;100.00;102517.28;10012720;29;20048;-69
2022/01/21 03:56:35;;;;;;;13.07;2.65;;;;;;;-0.27;100.00;102513.13;10014679;29;20090;-68
2022/01/21 04:01:31;;;;;;;10.68;1.52;;;;;;;-0.14;100.00;102500.75;9997392;29;20086;-68
2022/01/21 04:06:28;;;;;;;17.65;1.85;;;;;;;-0.10;100.00;102507.41;9998356;29;20060;-68
2022/01/21 04:11:25;;;;;;;17.98;3.28;;;;;;;-0.06;100.00;102516.72;10011759;29;20071;-68
2022/01/21 04:16:21;;;;;;;14.43;1.80;;;;;;;-0.02;100.00;102526.06;10013863;29;20052;-68
2022/01/21 04:21:18;;;;;;;24.33;2.60;;;;;;;0.02;100.00;102521.09;10018908;29;20533;-68
2022/01/21 04:26:14;;;;;;;13.90;2.65;;;;;;;0.10;100.00;102518.22;10023346;29;20079;-66
2022/01/21 04:31:11;;;;;;;24.73;3.95;;;;;;;0.11;100.00;102501.84;10021673;29;20075;-67
2022/01/21 04:36:08;;;;;;;14.02;2.13;;;;;;;0.14;100.00;102493.41;10032972;29;20051;-69
2022/01/21 04:41:21;;;;;;;15.00;1.80;;;;;;;0.13;100.00;102480.97;9996964;29;20147;-69
2022/01/21 04:51:40;;;;;;;8.23;1.42;;;;;;;0.08;100.00;102494.22;10013519;29;20577;-67
2022/01/21 04:56:36;;;;;;;13.15;1.98;;;;;;;0.10;100.00;102491.31;10006441;29;20115;-68
2022/01/21 05:01:33;;;;;;;18.75;2.00;;;;;;;0.07;100.00;102503.31;9997652;29;20494;-68
2022/01/21 05:06:29;;;;;;;22.48;2.05;;;;;;;0.12;100.00;102511.59;10019422;29;20055;-65
2022/01/21 05:11:26;;;;;;;13.52;1.77;;;;;;;0.13;100.00;102515.94;10033395;29;20052;-69
2022/01/21 05:16:37;;;;;;;17.42;3.25;;;;;;;0.13;100.00;102524.00;10026539;29;20078;-69
2022/01/21 05:21:34;;;;;;;18.63;1.90;;;;;;;0.14;100.00;102531.06;10013348;29;20054;-67
2022/01/21 05:26:36;;;;;;;17.42;2.00;;;;;;;0.14;100.00;102536.44;10019773;29;20047;-68
2022/01/21 05:31:33;;;;;;;13.30;1.50;;;;;;;0.14;100.00;102536.44;10014600;29;20055;-67
2022/01/21 05:36:31;;;;;;;23.50;2.00;;;;;;;0.19;100.00;102555.47;10026402;29;20402;-70
2022/01/21 05:41:28;;;;;;;15.15;2.10;;;;;;;0.22;100.00;102553.41;10022432;29;20047;-70
2022/01/21 05:51:38;;;;;;;14.75;2.83;;;;;;;0.26;100.00;102554.69;10001442;29;20088;-70
2022/01/21 05:56:36;;;;;;;14.07;1.65;;;;;;;0.28;100.00;102544.50;10001121;29;20048;-68
2022/01/21 06:01:34;;;;;;;20.90;2.17;;;;;;;0.28;100.00;102541.81;10011848;29;20095;-68
2022/01/21 06:06:30;;;;;;;11.15;1.60;;;;;;;0.29;100.00;102548.88;10008850;29;20048;-68
2022/01/21 06:11:27;;;;;;;14.70;1.77;;;;;;;0.30;100.00;102545.16;10018438;29;20395;-67
2022/01/21 06:16:23;;;;;;;12.35;2.97;;;;;;;0.32;100.00;102548.47;10007038;29;20146;-67
2022/01/21 06:21:21;;;;;;;10.63;1.65;;;;;;;0.30;100.00;102550.53;10003091;29;20044;-70
2022/01/21 06:26:18;;;;;;;17.05;2.47;;;;;;;0.32;100.00;102561.91;10015127;29;20056;-69
2022/01/21 06:31:14;;;;;;;15.00;1.42;;;;;;;0.27;100.00;102556.31;10005105;29;20071;-69
2022/01/21 06:36:11;;;;;;;11.85;2.67;;;;;;;0.27;100.00;102561.72;10009521;29;20048;-69
2022/01/21 06:41:08;;;;;;;10.07;1.40;;;;;;;0.17;100.00;102576.38;10006086;29;20486;-69
2022/01/21 06:46:07;;;;;;;16.02;2.13;;;;;;;0.25;100.00;102587.97;10001113;29;20103;-70
2022/01/21 06:51:04;;;;;;;10.20;2.00;;;;;;;0.18;100.00;102591.47;10007546;29;20062;-70
2022/01/21 06:56:00;;;;;;;12.55;1.20;;;;;;;0.11;100.00;102601.38;10007030;29;20459;-68
2022/01/21 07:00:57;;;;;;;8.77;1.40;;;;;;;0.14;100.00;102611.75;10006757;29;20075;-70
2022/01/21 07:05:53;;;;;;;10.30;1.45;;;;;;;0.13;100.00;102615.47;10012430;29;20056;-69
2022/01/21 07:10:50;;;;;;;7.90;0.90;;;;;;;0.12;100.00;102618.38;10010594;29;20920;-69
2022/01/21 07:15:46;;;;;;;15.07;1.58;;;;;;;0.11;100.00;102627.47;10002534;29;20079;-69
2022/01/21 07:20:43;;;;;;;9.32;2.05;;;;;;;0.09;100.00;102638.41;10004933;29;20048;-69
2022/01/21 07:25:40;;;;;;;9.13;1.15;;;;;;;0.09;100.00;102635.72;10001166;29;20044;-69
2022/01/21 07:30:36;;;;;;;9.05;1.83;;;;;;;0.05;100.00;102634.47;10001740;29;20051;-69
2022/01/21 07:35:33;;;;;;;11.43;2.05;;;;;;;-0.01;100.00;102646.03;10009803;29;20209;-70
2022/01/21 07:40:38;;;;;;;8.98;1.35;;;;;;;0.07;100.00;102653.94;9998983;29;20044;-69
2022/01/21 07:45:36;;;;;;;10.98;1.58;;;;;;;0.09;100.00;102656.41;10000261;29;20060;-69
2022/01/21 07:50:33;;;;;;;11.48;1.40;;;;;;;0.05;100.00;102656.00;10005427;29;20048;-68
2022/01/21 07:55:30;;;;;;;8.50;1.10;;;;;;;0.01;100.00;102654.72;9993518;29;20155;-68
2022/01/21 08:00:27;;;;;;;7.88;1.45;;;;;;;0.04;100.00;102673.16;10024016;29;20098;-68
2022/01/21 08:05:28;;;;;;;12.45;1.60;;;;;;;0.09;100.00;102668.00;9998762;29;20490;-68
2022/01/21 08:10:25;;;;;;;8.52;1.25;;;;;;;0.07;100.00;102670.09;10008461;29;20461;-68
2022/01/21 08:15:22;;;;;;;11.93;1.30;;;;;;;0.13;100.00;102679.19;9999585;29;20056;-68
2022/01/21 08:20:18;;;;;;;6.88;0.95;;;;;;;0.10;100.00;102680.44;9997625;29;20051;-74
2022/01/21 08:25:15;;;;;;;7.38;1.48;;;;;;;0.12;100.00;102689.13;10004210;29;20055;-69
2022/01/21 08:30:12;;;;;;;7.93;1.10;;;;;;;0.07;100.00;102675.47;9998998;29;20056;-68
2022/01/21 08:35:10;;;;;;;9.15;1.17;;;;;;;0.06;100.00;102684.53;10003429;29;20111;-69
2022/01/21 08:40:08;;;;;;;8.43;1.05;;;;;;;0.17;100.00;102685.84;10008125;29;20048;-69
2022/01/21 08:45:05;;;;;;;9.13;2.22;;;;;;;0.22;100.00;102691.47;10011444;29;20107;-69
2022/01/21 08:50:07;;;;;;;8.20;1.35;;;;;;;0.34;100.00;102707.84;9997791;29;20052;-71
2022/01/21 08:55:15;;;;;;;9.48;1.40;;;;;;;0.35;100.00;102714.91;9999261;29;20076;-70
2022/01/21 09:00:17;;;;;;;9.13;1.20;;;;;;;0.53;100.00;102723.25;9993495;29;20060;-70
2022/01/21 09:05:14;;;;;;;12.18;1.15;;;;;;;0.86;100.00;102725.22;10000157;29;20139;-70
2022/01/21 09:10:11;;;;;;;8.30;1.40;;;;;;;0.97;100.00;102713.00;10006967;29;20052;-72
2022/01/21 09:15:08;;;;;;;8.25;1.20;;;;;;;0.93;100.00;102722.53;10006935;29;20048;-70
2022/01/21 09:20:06;;;;;;;9.32;0.95;;;;;;;0.95;100.00;102732.09;10020031;29;20052;-70
2022/01/21 09:25:03;;;;;;;3.55;1.02;;;;;;;1.03;98.82;102729.19;10007293;29;20047;-70
2022/01/21 09:29:59;;;;;;;5.90;1.08;;;;;;;0.96;96.69;102744.50;10016820;29;20179;-71
2022/01/21 09:34:56;;;;;;;9.70;0.90;;;;;;;1.03;96.37;102729.19;10007027;29;20047;-71
2022/01/21 09:39:52;;;;;;;11.02;1.10;;;;;;;1.17;96.15;102729.22;10009457;29;20052;-72
2022/01/21 09:44:49;;;;;;;9.88;0.95;;;;;;;1.26;93.23;102733.38;10003273;29;20126;-71
2022/01/21 09:49:46;;;;;;;6.28;0.80;;;;;;;1.58;91.90;102725.47;10009543;29;20072;-71
2022/01/21 09:54:47;;;;;;;7.28;0.80;;;;;;;1.79;87.55;102727.97;10008865;29;20048;-70
2022/01/21 09:59:44;;;;;;;4.72;0.85;;;;;;;2.05;84.85;102731.66;10009979;29;20047;-70
2022/01/21 10:04:42;;;;;;;5.85;0.98;;;;;;;2.41;80.41;102730.28;10011649;29;20478;-71
2022/01/21 10:09:39;;;;;;;5.60;0.88;;;;;;;2.76;75.71;102743.44;9996747;29;20044;-71
2022/01/21 10:14:37;;;;;;;6.05;1.08;;;;;;;2.95;71.92;102737.09;10000292;29;20507;-71
2022/01/21 10:19:36;;;;;;;8.77;0.93;;;;;;;3.30;71.30;102739.38;10012738;29;20464;-71
2022/01/21 10:24:35;;;;;;;6.50;0.95;;;;;;;3.44;69.56;102751.75;10008504;29;20119;-72
2022/01/21 10:29:42;;;;;;;8.25;1.00;;;;;;;3.75;70.33;102752.72;10017480;29;20056;-71
2022/01/21 10:34:42;;;;;;;6.32;1.20;;;;;;;4.03;69.25;102748.72;10005705;29;20400;-71
2022/01/21 10:39:58;;;;;;;4.85;0.90;;;;;;;3.76;71.22;102749.81;10009353;29;20043;-71
2022/01/21 10:44:55;;;;;;;7.93;0.80;;;;;;;3.67;76.46;102755.72;10011835;29;20127;-71
2022/01/21 10:50:19;;;;;;;6.00;1.10;;;;;;;3.70;82.60;102766.09;10008561;29;21353;-71
2022/01/21 10:55:32;;;;;;;9.82;1.33;;;;;;;3.71;85.31;102756.91;10016291;29;20060;-71
2022/01/21 11:00:29;;;;;;;;;;;;;;;3.64;87.19;102751.56;10005484;29;20052;-71
2022/01/21 11:05:31;;;;;;;9.88;1.25;;;;;;;3.64;91.34;102750.72;10007033;29;20021;-71
2022/01/21 11:10:40;;;;;;;11.88;1.63;;;;;;;3.66;93.52;102751.34;10005783;29;20071;-71
2022/01/21 11:15:48;;;;;;;12.43;1.95;;;;;;;3.72;97.50;102743.16;10010679;29;20083;-71
2022/01/21 11:21:08;;;;;;;14.27;1.20;;;;;;;3.96;99.07;102743.34;10020868;29;20051;-69
2022/01/21 11:26:10;;;;;;;9.40;1.65;;;;;;;3.99;100.00;102743.75;10017598;29;20091;-72
2022/01/21 11:31:08;;;;;;;5.32;0.98;;;;;;;4.18;100.00;102730.22;10014439;29;20044;-71
2022/01/21 11:36:06;;;;;;;8.52;1.17;;;;;;;4.67;100.00;102733.78;10009791;29;20502;-72
2022/01/21 11:41:05;;;;;;;11.98;1.40;;;;;;;4.86;100.00;102715.59;10017151;29;20052;-72
2022/01/21 11:47:00;;;;;;;10.45;1.55;;;;;;;4.72;100.00;102723.09;10015414;29;20525;-72
2022/01/21 11:51:29;;;;;;;11.30;2.65;;;;;;;4.74;100.00;102726.41;10022074;29;20070;-71
2022/01/21 11:56:48;;;;;;;6.40;1.20;;;;;;;4.67;100.00;102722.13;10005475;29;20123;-71
2022/01/21 12:01:48;;;;;;;9.20;1.08;;;;;;;4.40;100.00;102708.91;10003083;29;20048;-71
2022/01/21 12:06:45;;;;;;;13.00;1.45;;;;;;;4.19;100.00;102710.22;10000692;29;20103;-71
2022/01/21 12:11:42;;;;;;;11.52;2.08;;;;;;;4.28;100.00;102698.03;10004690;29;20076;-73
2022/01/21 12:17:11;;;;;;;10.60;2.15;;;;;;;4.48;100.00;102696.94;10005747;29;20044;-72
2022/01/21 12:22:18;;;;;;;13.82;2.63;;;;;;;4.54;100.00;102693.31;10004390;29;20051;-72
2022/01/21 12:27:15;;;;;;;8.60;1.40;;;;;;;4.35;100.00;102687.94;9993601;29;20131;-72
2022/01/21 12:32:20;;;;;;;8.95;1.48;;;;;;;4.36;100.00;102686.91;10010117;29;20465;-74
2022/01/21 12:37:23;;;;;;;11.65;1.35;;;;;;;4.31;100.00;102673.19;9994075;29;20129;-73
2022/01/21 12:42:19;;;;;;;12.85;1.92;;;;;;;4.30;100.00;102668.84;10000753;29;20072;-72
2022/01/21 12:47:40;;;;;;;15.55;2.13;;;;;;;4.24;100.00;102669.75;10005433;29;20075;-72
2022/01/21 12:57:46;;;;;;;13.80;1.65;;;;;;;4.24;100.00;102653.50;9997239;29;20122;-72
2022/01/21 13:02:49;;;;;;;17.40;2.15;;;;;;;4.21;100.00;102643.94;10001628;29;20076;-72
2022/01/21 13:07:50;;;;;;;11.48;1.85;;;;;;;4.42;100.00;102637.22;9995640;29;20054;-72
2022/01/21 13:13:00;;;;;;;11.25;1.42;;;;;;;4.74;100.00;102638.88;10001254;29;20048;-72
2022/01/21 13:17:59;;;;;;;13.80;1.85;;;;;;;4.73;100.00;102646.13;9998914;29;20047;-72
2022/01/21 13:22:56;;;;;;;7.90;1.65;;;;;;;4.73;100.00;102651.56;10005743;29;20048;-72
2022/01/21 13:27:57;;;;;;;9.57;1.75;;;;;;;4.51;100.00;102642.31;10007933;29;20469;-72
2022/01/21 13:32:59;;;;;;;10.60;1.05;;;;;;;4.58;100.00;102643.06;10002492;29;20048;-72
2022/01/21 13:38:17;;;;;;;16.30;3.13;;;;;;;4.47;100.00;102647.34;9980763;29;20057;-72
2022/01/21 13:43:22;;;;;;;14.90;2.75;;;;;;;4.63;100.00;102640.47;9987134;29;20060;-71
2022/01/21 13:48:19;;;;;;;10.45;1.67;;;;;;;4.72;100.00;102641.78;9996574;29;20052;-71
2022/01/21 13:53:16;;;;;;;18.50;2.53;;;;;;;4.62;100.00;102630.69;10016081;29;20056;-71
2022/01/21 13:58:17;;;;;;;11.70;2.90;;;;;;;4.51;100.00;102626.06;10029607;29;20071;-71
2022/01/21 14:03:28;;;;;;;15.10;2.58;;;;;;;4.61;100.00;102619.00;10005961;29;20059;-72
2022/01/21 14:08:51;;;;;;;12.23;1.52;;;;;;;4.57;100.00;102615.13;10026384;29;20498;-72
2022/01/21 14:13:51;;;;;;;11.10;1.90;;;;;;;4.64;100.00;102609.59;10003184;29;20051;-72
2022/01/21 14:18:47;;;;;;;15.50;2.33;;;;;;;4.68;100.00;102599.94;10008342;29;20522;-72
2022/01/21 14:23:46;;;;;;;17.88;1.88;;;;;;;4.51;100.00;102593.56;10010168;29;20048;-72
2022/01/21 14:28:44;;;;;;;14.00;2.10;;;;;;;4.52;100.00;102584.34;10013854;29;20043;-72
2022/01/21 14:33:41;;;;;;;22.63;2.80;;;;;;;4.55;100.00;102578.47;10011357;29;20050;-72
2022/01/21 14:38:38;;;;;;;13.73;1.50;;;;;;;4.52;100.00;102574.34;10005484;29;20123;-71
2022/01/21 14:43:34;;;;;;;16.42;2.10;;;;;;;4.44;100.00;102566.56;10009862;29;20107;-72
2022/01/21 14:48:33;;;;;;;15.27;2.50;;;;;;;4.51;100.00;102571.88;10010303;29;20270;-72
2022/01/21 14:53:32;;;;;;;16.10;1.83;;;;;;;4.56;100.00;102570.13;9999776;29;20059;-72
2022/01/21 14:58:28;;;;;;;10.18;1.65;;;;;;;4.51;100.00;102569.19;10002289;29;20131;-72
2022/01/21 15:03:30;;;;;;;21.10;2.22;;;;;;;4.46;100.00;102559.03;10003027;29;20158;-72
2022/01/21 15:08:43;;;;;;;24.55;2.63;;;;;;;4.46;100.00;102548.19;10000955;29;20466;-72
2022/01/21 15:18:56;;;;;;;14.15;1.80;;;;;;;4.39;100.00;102542.88;10015272;29;20414;-72
2022/01/21 15:23:53;;;;;;;12.18;1.77;;;;;;;4.52;100.00;102549.16;10010699;29;20502;-73
2022/01/21 15:29:10;;;;;;;18.70;3.47;;;;;;;4.50;100.00;102533.13;10001053;29;20127;-73
2022/01/21 15:34:08;;;;;;;20.23;3.30;;;;;;;4.42;100.00;102531.56;10017619;29;20179;-72
2022/01/21 15:39:10;;;;;;;16.38;2.38;;;;;;;4.50;100.00;102537.72;10018729;29;20142;-72
2022/01/21 15:44:07;;;;;;;15.68;2.35;;;;;;;4.41;100.00;102524.53;10007728;29;20052;-72
2022/01/21 15:49:04;;;;;;;23.00;2.75;;;;;;;4.46;100.00;102525.72;10018332;29;20039;-73
2022/01/21 15:54:01;;;;;;;21.65;2.72;;;;;;;4.48;100.00;102520.88;9997496;29;20080;-73
2022/01/21 15:58:57;;;;;;;14.85;2.15;;;;;;;4.39;100.00;102509.56;9996592;29;20059;-72
2022/01/21 16:03:55;;;;;;;23.23;2.70;;;;;;;4.36;100.00;102505.44;9995077;29;20084;-72
2022/01/21 16:08:52;;;;;;;18.63;3.17;;;;;;;4.31;100.00;102501.75;9995353;29;20466;-72
2022/01/21 16:13:48;;;;;;;16.92;3.03;;;;;;;4.28;100.00;102502.22;9997095;29;20131;-72
2022/01/21 16:18:45;;;;;;;17.73;2.83;;;;;;;4.28;100.00;102492.22;9996037;29;20103;-73
2022/01/21 16:23:41;;;;;;;14.00;2.67;;;;;;;4.27;100.00;102479.75;9996254;29;20079;-72
2022/01/21 16:28:38;;;;;;;20.63;3.30;;;;;;;4.15;100.00;102481.59;9968613;29;20515;-72
2022/01/21 16:33:34;;;;;;;18.85;2.95;;;;;;;4.14;100.00;102474.53;9984699;29;20075;-72
2022/01/21 16:38:31;;;;;;;18.02;3.03;;;;;;;4.09;100.00;102455.47;10005484;29;20044;-72
2022/01/21 16:43:27;;;;;;;20.40;3.85;;;;;;;3.99;100.00;102451.44;10016616;29;20462;-71
2022/01/21 16:48:24;;;;;;;22.63;3.67;;;;;;;4.10;100.00;102444.38;10006243;29;20750;-71
2022/01/21 16:53:21;;;;;;;21.75;3.75;;;;;;;4.06;100.00;102439.66;9998296;29;20044;-73
2022/01/21 16:58:18;;;;;;;15.95;3.83;;;;;;;4.11;100.00;102447.94;9999569;29;20080;-71
2022/01/21 17:03:18;;;;;;;17.13;4.85;;;;;;;4.05;100.00;102446.13;10005264;29;20051;-71
2022/01/21 17:08:16;;;;;;;20.55;6.53;;;;;;;4.02;100.00;102446.63;10028742;29;20051;-71
2022/01/21 17:13:13;;;;;;;15.27;6.60;;;;;;;4.02;100.00;102443.91;10015482;29;20043;-71
2022/01/21 17:18:10;;;;;;;15.13;6.30;;;;;;;4.00;100.00;102442.25;10017354;29;20039;-71
2022/01/21 17:23:07;;;;;;;13.98;6.47;;;;;;;4.07;100.00;102433.19;10023996;29;20075;-71
2022/01/21 17:28:04;;;;;;;14.57;7.00;;;;;;;4.11;100.00;102424.38;9999335;29;20043;-71
2022/01/21 17:33:00;;;;;;;16.10;6.70;;;;;;;4.12;100.00;102423.31;10000268;29;20059;-71
2022/01/21 17:37:57;;;;;;;12.32;6.10;;;;;;;4.13;100.00;102413.31;9998148;29;20044;-69
2022/01/21 17:42:55;;;;;;;12.38;5.07;;;;;;;4.18;100.00;102416.16;9999614;29;20136;-69
2022/01/21 17:47:54;;;;;;;10.00;5.38;;;;;;;4.19;100.00;102417.81;10000937;29;20541;-69
2022/01/21 17:52:52;;;;;;;8.82;5.88;;;;;;;4.13;100.00;102416.00;10014229;29;20135;-68
2022/01/21 17:57:51;;;;;;;9.60;6.55;;;;;;;4.12;100.00;102415.19;10010171;29;20091;-68
2022/01/21 18:02:48;;;;;;;11.07;6.00;;;;;;;4.18;100.00;102416.16;10003766;29;20054;-68
2022/01/21 18:07:45;;;;;;;12.18;7.05;;;;;;;4.13;100.00;102418.72;10002185;29;20048;-69
2022/01/21 18:12:42;;;;;;;14.63;9.20;;;;;;;4.21;100.00;102410.28;10002222;29;20052;-68
2022/01/21 18:17:38;;;;;;;13.40;8.48;;;;;;;4.26;100.00;102418.50;9998255;29;20570;-69
2022/01/21 18:22:35;;;;;;;12.77;7.95;;;;;;;4.28;100.00;102400.16;10001570;29;20418;-68
2022/01/21 18:27:32;;;;;;;12.13;7.80;;;;;;;4.41;100.00;102404.53;10000407;29;20052;-68
2022/01/21 18:32:29;;;;;;;15.50;8.93;;;;;;;4.37;100.00;102396.03;10001580;29;20052;-69
2022/01/21 18:37:25;;;;;;;12.95;7.70;;;;;;;4.41;100.00;102393.69;10017046;29;20044;-68
2022/01/21 18:42:30;;;;;;;14.68;8.07;;;;;;;4.49;100.00;102392.50;10005672;29;20075;-68
2022/01/21 18:47:30;;;;;;;13.10;8.60;;;;;;;4.51;100.00;102398.53;10007898;29;20053;-68
2022/01/21 18:52:27;;;;;;;16.08;9.68;;;;;;;4.56;100.00;102396.75;10005414;29;20051;-68
2022/01/21 18:57:23;;;;;;;14.85;8.13;;;;;;;4.62;100.00;102400.41;10010968;29;20075;-68
2022/01/21 19:02:25;;;;;;;14.70;9.02;;;;;;;4.69;100.00;102411.94;9998381;29;20533;-68
2022/01/21 19:07:22;;;;;;;16.27;9.57;;;;;;;4.78;100.00;102405.09;10008917;29;20487;-68
2022/01/21 19:12:19;;;;;;;17.13;9.70;;;;;;;4.82;100.00;102411.66;9998765;29;20067;-68
2022/01/21 19:17:17;;;;;;;16.67;8.40;;;;;;;4.91;100.00;102414.84;10003881;29;20056;-68
2022/01/21 19:22:14;;;;;;;15.35;7.57;;;;;;;4.97;100.00;102413.09;9998604;29;20123;-69
2022/01/21 19:27:11;;;;;;;12.80;7.75;;;;;;;5.05;100.00;102404.56;10006434;29;20460;-69
2022/01/21 19:32:09;;;;;;;13.75;6.93;;;;;;;5.05;100.00;102399.16;9997872;29;20555;-68
2022/01/21 19:37:08;;;;;;;19.48;7.05;;;;;;;5.12;100.00;102399.84;10003751;29;20135;-68
2022/01/21 19:42:06;;;;;;;13.05;7.32;;;;;;;5.12;100.00;102399.84;10003717;29;20467;-68
2022/01/21 19:47:07;;;;;;;12.82;5.80;;;;;;;5.12;100.00;102404.44;9998053;29;20048;-68
2022/01/21 19:52:04;;;;;;;9.40;3.45;;;;;;;5.14;100.00;102400.44;9996382;29;20505;-68
2022/01/21 19:57:19;;;;;;;9.63;3.88;;;;;;;5.17;100.00;102397.22;10004006;29;20079;-68
2022/01/21 20:02:29;;;;;;;8.02;3.90;;;;;;;5.23;100.00;102401.69;10005804;29;20090;-68
2022/01/21 20:17:20;;;;;;;15.43;5.78;;;;;;;5.23;100.00;102398.97;10018518;29;20107;-69
2022/01/21 20:22:16;;;;;;;11.88;3.22;;;;;;;5.26;100.00;102397.69;10018819;29;20088;-69
2022/01/21 20:27:14;;;;;;;12.00;4.05;;;;;;;5.33;100.00;102397.53;10023778;29;20059;-68
2022/01/21 20:32:20;;;;;;;15.63;4.40;;;;;;;5.36;100.00;102399.75;10013162;29;20138;-69
2022/01/21 20:37:22;;;;;;;8.73;4.07;;;;;;;5.40;100.00;102385.47;10004315;29;20767;-69
2022/01/21 20:42:19;;;;;;;12.82;5.00;;;;;;;5.43;100.00;102389.59;9995927;29;20542;-68
2022/01/21 20:47:16;;;;;;;12.38;4.43;;;;;;;5.46;100.00;102378.28;10006732;29;20513;-69
2022/01/21 20:52:13;;;;;;;13.80;5.03;;;;;;;5.46;100.00;102389.13;9994884;29;20082;-69
2022/01/21 20:57:10;;;;;;;21.05;6.20;;;;;;;5.48;100.00;102382.38;10005623;29;20524;-69
2022/01/21 21:02:07;;;;;;;12.73;4.43;;;;;;;5.43;100.00;102387.72;9994191;29;20590;-69
2022/01/21 21:07:05;;;;;;;17.48;6.07;;;;;;;5.47;100.00;102402.41;10007333;29;20138;-69
2022/01/21 21:12:07;;;;;;;10.88;3.97;;;;;;;5.44;100.00;102402.91;10010436;29;20056;-69
2022/01/21 21:27:38;;;;;;;9.18;4.03;;;;;;;5.53;100.00;102422.34;10010560;29;20079;-69
2022/01/21 22:14:41;;;;;;;14.50;5.75;;;;;;;5.56;100.00;102400.16;10019705;29;20476;-69
2022/01/21 22:46:15;;;;;;;14.27;5.45;;;;;;;5.65;100.00;102439.41;10003157;29;20044;-66
2022/01/21 22:51:02;;;;;;;10.55;5.03;;;;;;;5.66;100.00;102443.78;10010254;29;20056;-65
2022/01/21 23:01:09;;;;;;;12.18;5.57;;;;;;;5.67;100.00;102433.75;10004380;29;20055;-65
2022/01/21 23:06:10;;;;;;;13.60;5.15;;;;;;;5.61;100.00;102442.84;10001627;29;20059;-70
2022/01/21 23:11:11;;;;;;;12.07;5.40;;;;;;;5.65;100.00;102452.16;10002571;29;20127;-70
2022/01/21 23:16:08;;;;;;;15.15;5.97;;;;;;;5.66;100.00;102445.66;10000745;29;20542;-70
2022/01/21 23:21:05;;;;;;;12.38;5.72;;;;;;;5.72;100.00;102452.00;9996940;29;20074;-68
2022/01/21 23:26:06;;;;;;;13.23;5.15;;;;;;;5.74;100.00;102449.88;10020273;29;20051;-68
2022/01/21 23:31:02;;;;;;;11.45;6.20;;;;;;;5.68;100.00;102454.38;10012965;29;20052;-70
2022/01/21 23:36:02;;;;;;;12.55;6.20;;;;;;;5.77;100.00;102454.81;10000995;29;20427;-70
2022/01/21 23:41:06;;;;;;;13.20;5.25;;;;;;;5.80;100.00;102457.03;9966806;29;20056;-70
2022/01/21 23:46:08;;;;;;;11.05;4.82;;;;;;;5.77;100.00;102460.25;10024649;29;20593;-69
2022/01/21 23:51:06;;;;;;;12.07;5.55;;;;;;;5.74;100.00;102460.75;9998285;29;20048;-71
2022/01/21 23:56:04;;;;;;;12.38;4.95;;;;;;;5.74;100.00;102460.75;9997607;29;20092;-71
